createdAt,value
2018-09-15T00:00:58.458Z,14.53
2018-09-15T00:03:27.340Z,13.22
2018-09-15T00:05:56.043Z,12.70
2018-09-15T00:08:24.708Z,13.70
2018-09-15T00:10:53.499Z,15.25
2018-09-15T00:13:22.994Z,14.23
2018-09-15T00:15:52.157Z,13.30
2018-09-15T00:18:21.452Z,13.25
2018-09-15T00:20:50.260Z,18.00
2018-09-15T00:23:19.093Z,20.90
2018-09-15T00:25:47.812Z,21.97
2018-09-15T00:28:16.476Z,27.37
2018-09-15T00:30:45.278Z,33.70
2018-09-15T00:33:14.041Z,32.63
2018-09-15T00:35:42.801Z,33.33
2018-09-15T00:38:11.560Z,35.45
2018-09-15T00:40:40.268Z,38.78
2018-09-15T00:43:09.001Z,38.48
2018-09-15T00:45:37.811Z,42.17
2018-09-15T00:48:06.593Z,41.83
2018-09-15T00:50:35.389Z,41.98
2018-09-15T00:53:04.197Z,47.05
2018-09-15T00:55:32.863Z,56.07
2018-09-15T00:58:01.514Z,47.75
2018-09-15T01:00:30.371Z,55.38
2018-09-15T01:02:59.086Z,52.50
2018-09-15T01:05:27.752Z,47.33
2018-09-15T01:07:56.820Z,34.40
2018-09-15T01:10:25.695Z,40.30
2018-09-15T01:12:57.670Z,40.50
2018-09-15T01:15:26.381Z,39.13
2018-09-15T01:17:55.249Z,38.98
2018-09-15T01:20:24.371Z,33.35
2018-09-15T01:22:53.050Z,24.63
2018-09-15T01:25:22.084Z,25.60
2018-09-15T01:27:52.614Z,34.83
2018-09-15T01:30:21.342Z,27.95
2018-09-15T01:32:50.243Z,26.40
2018-09-15T01:35:19.182Z,27.27
2018-09-15T01:37:47.766Z,29.52
2018-09-15T01:40:16.537Z,28.25
2018-09-15T01:42:48.423Z,27.40
2018-09-15T01:45:17.002Z,28.38
2018-09-15T01:47:46.083Z,28.45
2018-09-15T01:50:14.887Z,29.30
2018-09-15T01:52:44.180Z,27.70
2018-09-15T01:55:12.965Z,24.70
2018-09-15T01:57:41.760Z,21.40
2018-09-15T02:00:10.519Z,19.23
2018-09-15T02:02:39.235Z,19.05
2018-09-15T02:05:07.903Z,19.48
2018-09-15T02:07:36.607Z,18.60
2018-09-15T02:10:05.549Z,17.62
2018-09-15T02:12:35.452Z,22.02
2018-09-15T02:15:05.818Z,21.02
2018-09-15T02:17:34.566Z,31.73
2018-09-15T02:20:03.331Z,31.60
2018-09-15T02:22:32.146Z,27.05
2018-09-15T02:25:00.786Z,25.53
2018-09-15T02:27:29.750Z,30.10
2018-09-15T02:29:58.303Z,32.45
2018-09-15T02:32:26.978Z,31.83
2018-09-15T02:34:55.834Z,33.95
2018-09-15T02:37:24.484Z,31.52
2018-09-15T02:39:53.748Z,30.65
2018-09-15T02:42:22.414Z,29.05
2018-09-15T02:44:51.124Z,29.90
2018-09-15T02:47:19.816Z,37.23
2018-09-15T02:49:48.507Z,31.42
2018-09-15T02:52:17.096Z,29.98
2018-09-15T02:54:45.699Z,32.65
2018-09-15T02:57:14.303Z,31.70
2018-09-15T02:59:42.887Z,23.02
2018-09-15T03:02:11.594Z,20.77
2018-09-15T03:04:40.249Z,21.12
2018-09-15T03:07:08.825Z,20.60
2018-09-15T03:09:37.582Z,23.93
2018-09-15T03:12:06.324Z,28.02
2018-09-15T03:14:35.020Z,29.25
2018-09-15T03:17:03.565Z,30.17
2018-09-15T03:19:32.375Z,27.22
2018-09-15T03:22:01.076Z,26.55
2018-09-15T03:24:29.765Z,28.23
2018-09-15T03:26:58.410Z,29.50
2018-09-15T03:29:26.997Z,29.67
2018-09-15T03:31:55.766Z,31.15
2018-09-15T03:34:24.530Z,30.30
2018-09-15T03:36:53.229Z,29.12
2018-09-15T03:39:22.019Z,28.77
2018-09-15T03:41:50.771Z,32.88
2018-09-15T03:44:19.945Z,33.85
2018-09-15T03:46:48.672Z,33.08
2018-09-15T03:49:17.486Z,30.60
2018-09-15T03:51:46.191Z,32.33
2018-09-15T03:54:17.982Z,28.62
2018-09-15T03:56:46.692Z,30.62
2018-09-15T03:59:16.892Z,34.73
2018-09-15T04:01:45.847Z,30.32
2018-09-15T04:04:14.619Z,31.30
2018-09-15T04:06:43.435Z,30.50
2018-09-15T04:09:14.075Z,30.15
2018-09-15T04:11:42.906Z,29.95
2018-09-15T04:14:11.641Z,31.90
2018-09-15T04:16:40.328Z,29.00
2018-09-15T04:19:08.922Z,27.95
2018-09-15T04:21:37.663Z,32.00
2018-09-15T04:24:06.399Z,28.52
2018-09-15T04:26:35.158Z,29.27
2018-09-15T04:29:04.468Z,31.12
2018-09-15T04:31:33.149Z,36.15
2018-09-15T04:34:01.815Z,38.83
2018-09-15T04:36:30.521Z,37.35
2018-09-15T04:38:59.252Z,38.65
2018-09-15T04:41:27.940Z,30.80
2018-09-15T04:43:56.500Z,27.05
2018-09-15T04:46:25.260Z,29.82
2018-09-15T04:48:53.932Z,29.93
2018-09-15T04:51:22.554Z,35.63
2018-09-15T04:53:51.314Z,33.45
2018-09-15T04:56:19.887Z,37.33
2018-09-15T04:58:48.636Z,40.90
2018-09-15T05:01:17.270Z,40.63
2018-09-15T05:03:46.167Z,45.25
2018-09-15T05:06:14.839Z,44.73
2018-09-15T05:08:43.478Z,45.12
2018-09-15T05:11:12.254Z,48.93
2018-09-15T05:13:40.990Z,47.53
2018-09-15T05:16:09.832Z,46.48
2018-09-15T05:18:38.418Z,44.45
2018-09-15T05:21:07.060Z,47.95
2018-09-15T05:23:35.977Z,50.90
2018-09-15T05:26:05.217Z,50.98
2018-09-15T05:28:34.029Z,49.42
2018-09-15T05:31:02.756Z,50.00
2018-09-15T05:33:31.416Z,49.60
2018-09-15T05:36:00.106Z,50.05
2018-09-15T05:39:52.783Z,43.05
2018-09-15T05:42:21.396Z,43.20
2018-09-15T05:44:50.189Z,39.45
2018-09-15T05:47:19.111Z,43.38
2018-09-15T05:49:48.000Z,36.40
2018-09-15T05:52:16.534Z,38.25
2018-09-15T05:54:45.151Z,41.50
2018-09-15T05:57:13.857Z,40.92
2018-09-15T05:59:42.588Z,40.78
2018-09-15T06:02:11.263Z,43.50
2018-09-15T06:04:39.943Z,43.98
2018-09-15T06:07:08.666Z,46.05
2018-09-15T06:09:37.562Z,44.20
2018-09-15T06:12:06.436Z,41.53
2018-09-15T06:14:35.103Z,39.83
2018-09-15T06:17:03.858Z,37.30
2018-09-15T06:19:32.522Z,33.48
2018-09-15T06:22:07.986Z,38.13
2018-09-15T06:24:47.463Z,38.08
2018-09-15T06:27:16.463Z,35.63
2018-09-15T06:29:45.103Z,37.75
2018-09-15T06:32:13.728Z,39.92
2018-09-15T06:34:42.520Z,39.08
2018-09-15T06:37:11.180Z,39.27
2018-09-15T06:39:40.446Z,37.67
2018-09-15T06:42:09.110Z,36.73
2018-09-15T06:44:37.896Z,33.73
2018-09-15T06:47:06.639Z,37.28
2018-09-15T06:49:35.500Z,36.77
2018-09-15T06:52:04.150Z,40.08
2018-09-15T06:54:32.898Z,38.42
2018-09-15T06:57:01.532Z,39.85
2018-09-15T06:59:30.498Z,38.03
2018-09-15T07:01:59.173Z,36.50
2018-09-15T07:04:27.880Z,40.48
2018-09-15T07:06:56.585Z,40.43
2018-09-15T07:09:25.360Z,43.30
2018-09-15T07:11:54.106Z,38.63
2018-09-15T07:14:22.782Z,33.73
2018-09-15T07:16:51.598Z,36.70
2018-09-15T07:19:20.366Z,33.95
2018-09-15T07:21:49.035Z,34.90
2018-09-15T07:24:17.718Z,30.23
2018-09-15T07:26:47.041Z,30.75
2018-09-15T07:29:16.865Z,29.63
2018-09-15T07:31:45.942Z,28.30
2018-09-15T07:34:14.639Z,30.17
2018-09-15T07:36:43.467Z,28.83
2018-09-15T07:39:12.506Z,31.33
2018-09-15T07:41:41.667Z,30.20
2018-09-15T07:44:10.326Z,29.50
2018-09-15T07:46:39.079Z,33.20
2018-09-15T07:49:07.878Z,28.30
2018-09-15T07:51:36.894Z,31.93
2018-09-15T07:54:05.715Z,31.42
2018-09-15T07:56:34.739Z,32.43
2018-09-15T07:59:03.412Z,30.68
2018-09-15T08:01:32.407Z,35.00
2018-09-15T08:04:01.209Z,31.87
2018-09-15T08:06:30.651Z,33.63
2018-09-15T08:08:59.945Z,30.12
2018-09-15T08:11:28.629Z,33.70
2018-09-15T08:13:57.415Z,34.63
2018-09-15T08:16:27.061Z,30.35
2018-09-15T08:18:57.161Z,21.60
2018-09-15T08:21:25.946Z,19.32
2018-09-15T08:23:54.814Z,19.57
2018-09-15T08:26:23.877Z,18.40
2018-09-15T08:28:52.494Z,18.85
2018-09-15T08:31:21.182Z,20.27
2018-09-15T08:33:50.075Z,21.33
2018-09-15T08:36:18.831Z,23.30
2018-09-15T08:38:48.263Z,23.25
2018-09-15T08:41:17.172Z,23.13
2018-09-15T08:43:45.816Z,22.20
2018-09-15T08:46:14.600Z,22.80
2018-09-15T08:48:43.415Z,21.70
2018-09-15T08:51:12.211Z,22.22
2018-09-15T08:53:41.268Z,22.10
2018-09-15T08:56:09.992Z,21.95
2018-09-15T08:58:38.662Z,21.80
2018-09-15T09:01:07.398Z,22.03
2018-09-15T09:03:38.239Z,21.30
2018-09-15T09:06:07.052Z,20.05
2018-09-15T09:08:35.765Z,17.07
2018-09-15T09:11:04.570Z,18.62
2018-09-15T09:13:33.263Z,18.87
2018-09-15T09:16:02.039Z,18.10
2018-09-15T09:18:30.743Z,17.50
2018-09-15T09:20:59.628Z,18.62
2018-09-15T09:23:28.330Z,17.70
2018-09-15T09:25:57.017Z,17.23
2018-09-15T09:28:25.662Z,18.07
2018-09-15T09:30:57.810Z,19.80
2018-09-15T09:33:26.574Z,19.77
2018-09-15T09:35:55.311Z,21.27
2018-09-15T09:38:24.085Z,20.30
2018-09-15T09:40:53.020Z,22.00
2018-09-15T09:43:21.919Z,21.75
2018-09-15T09:45:50.746Z,20.50
2018-09-15T09:48:19.589Z,20.27
2018-09-15T09:50:48.264Z,19.92
2018-09-15T09:53:16.866Z,19.02
2018-09-15T09:55:45.631Z,17.25
2018-09-15T09:58:14.982Z,15.45
2018-09-15T10:00:49.028Z,15.60
2018-09-15T10:03:17.763Z,16.67
2018-09-15T10:05:46.439Z,17.20
2018-09-15T10:08:15.233Z,15.83
2018-09-15T10:10:43.951Z,16.07
2018-09-15T10:13:12.643Z,17.35
2018-09-15T10:15:41.382Z,16.12
2018-09-15T10:18:10.068Z,16.70
2018-09-15T10:20:38.630Z,16.17
2018-09-15T10:23:07.386Z,15.60
2018-09-15T10:25:36.140Z,17.87
2018-09-15T10:28:04.976Z,16.05
2018-09-15T10:30:33.694Z,17.05
2018-09-15T10:33:02.574Z,14.73
2018-09-15T10:35:31.333Z,14.93
2018-09-15T10:38:00.069Z,14.33
2018-09-15T10:40:29.080Z,13.50
2018-09-15T10:42:57.678Z,14.45
2018-09-15T10:45:26.543Z,12.97
2018-09-15T10:47:55.940Z,12.78
2018-09-15T10:50:25.126Z,12.95
2018-09-15T10:52:53.814Z,12.10
2018-09-15T10:55:22.615Z,12.20
2018-09-15T10:57:51.416Z,11.95
2018-09-15T11:00:20.365Z,13.80
2018-09-15T11:02:49.052Z,16.70
2018-09-15T11:05:17.640Z,12.07
2018-09-15T11:07:46.414Z,11.05
2018-09-15T11:10:15.038Z,11.80
2018-09-15T11:12:43.787Z,12.37
2018-09-15T11:15:12.575Z,11.85
2018-09-15T11:17:41.369Z,12.13
2018-09-15T11:20:10.053Z,10.82
2018-09-15T11:22:38.791Z,9.53
2018-09-15T11:25:07.446Z,9.73
2018-09-15T11:27:36.198Z,9.18
2018-09-15T11:31:34.184Z,10.95
2018-09-15T11:34:02.943Z,9.10
2018-09-15T11:36:31.629Z,9.38
2018-09-15T11:39:00.359Z,9.63
2018-09-15T11:41:29.120Z,9.45
2018-09-15T11:43:57.876Z,9.30
2018-09-15T11:46:26.626Z,8.23
2018-09-15T11:48:55.379Z,8.60
2018-09-15T11:51:24.449Z,8.00
2018-09-15T11:53:53.222Z,10.30
2018-09-15T11:56:21.895Z,8.30
2018-09-15T11:58:50.735Z,32.17
2018-09-15T12:01:19.491Z,7.58
2018-09-15T12:03:48.398Z,7.30
2018-09-15T12:06:17.107Z,7.20
2018-09-15T12:08:45.979Z,7.33
2018-09-15T12:11:14.813Z,6.83
2018-09-15T12:13:43.437Z,8.20
2018-09-15T12:16:12.095Z,6.92
2018-09-15T12:18:40.675Z,7.12
2018-09-15T12:21:09.247Z,7.97
2018-09-15T12:23:37.958Z,6.97
2018-09-15T12:26:06.796Z,7.50
2018-09-15T12:28:35.568Z,7.35
2018-09-15T12:31:04.613Z,9.10
2018-09-15T12:33:33.356Z,10.13
2018-09-15T12:36:02.238Z,8.35
2018-09-15T12:38:31.006Z,7.97
2018-09-15T12:41:01.411Z,8.95
2018-09-15T12:43:30.153Z,8.43
2018-09-15T12:45:58.914Z,7.67
2018-09-15T12:48:29.441Z,8.23
2018-09-15T12:50:58.255Z,7.95
2018-09-15T12:53:27.027Z,8.20
2018-09-15T12:55:55.772Z,8.95
2018-09-15T12:58:24.701Z,9.10
2018-09-15T13:00:53.823Z,8.85
2018-09-15T13:03:22.531Z,9.23
2018-09-15T13:05:51.349Z,9.35
2018-09-15T13:08:24.249Z,9.55
2018-09-15T13:10:53.030Z,9.98
2018-09-15T13:13:21.740Z,9.63
2018-09-15T13:15:50.487Z,10.47
2018-09-15T13:18:19.224Z,9.68
2018-09-15T13:20:48.010Z,9.03
2018-09-15T13:23:16.592Z,8.30
2018-09-15T13:25:47.772Z,9.08
2018-09-15T13:28:16.279Z,9.15
2018-09-15T13:30:45.698Z,8.75
2018-09-15T13:33:14.515Z,9.45
2018-09-15T13:35:43.103Z,8.93
2018-09-15T13:38:11.840Z,9.43
2018-09-15T13:40:40.571Z,9.18
2018-09-15T13:43:09.234Z,9.60
2018-09-15T13:45:37.873Z,9.25
2018-09-15T13:48:06.781Z,9.15
2018-09-15T13:50:35.564Z,8.98
2018-09-15T13:53:04.424Z,9.30
2018-09-15T13:55:33.035Z,9.48
2018-09-15T13:58:01.772Z,9.10
2018-09-15T14:00:30.511Z,8.30
2018-09-15T14:02:59.192Z,9.48
2018-09-15T14:05:27.935Z,8.55
2018-09-15T14:07:58.413Z,8.57
2018-09-15T14:10:27.326Z,8.57
2018-09-15T14:12:56.091Z,9.58
2018-09-15T14:15:24.919Z,8.70
2018-09-15T14:17:53.571Z,8.90
2018-09-15T14:20:22.342Z,8.55
2018-09-15T14:22:50.976Z,9.70
2018-09-15T14:25:19.622Z,8.50
2018-09-15T14:27:48.839Z,7.58
2018-09-15T14:30:17.580Z,9.38
2018-09-15T14:32:46.386Z,8.30
2018-09-15T14:35:15.127Z,8.13
2018-09-15T14:37:43.896Z,8.20
2018-09-15T14:40:12.754Z,7.65
2018-09-15T14:42:41.452Z,7.67
2018-09-15T14:45:10.123Z,7.85
2018-09-15T14:47:39.140Z,7.30
2018-09-15T14:50:07.947Z,7.20
2018-09-15T14:52:45.612Z,7.37
2018-09-15T14:55:18.984Z,7.73
2018-09-15T14:57:49.867Z,7.22
2018-09-15T15:00:18.534Z,7.33
2018-09-15T15:02:50.832Z,9.05
2018-09-15T15:05:19.515Z,10.38
2018-09-15T15:07:48.819Z,7.40
2018-09-15T15:10:18.594Z,8.87
2018-09-15T15:12:47.409Z,7.55
2018-09-15T15:15:21.035Z,7.10
2018-09-15T15:17:51.127Z,7.12
2018-09-15T15:20:19.789Z,6.37
2018-09-15T15:22:48.545Z,6.62
2018-09-15T15:25:17.215Z,5.67
2018-09-15T15:27:45.924Z,5.05
2018-09-15T15:30:14.592Z,4.90
2018-09-15T15:32:43.350Z,4.97
2018-09-15T15:35:12.106Z,4.70
2018-09-15T15:37:42.312Z,4.90
2018-09-15T15:40:11.094Z,6.28
2018-09-15T15:42:40.256Z,5.33
2018-09-15T15:45:08.831Z,6.25
2018-09-15T15:47:38.050Z,6.08
2018-09-15T15:50:06.813Z,6.03
2018-09-15T15:52:35.462Z,6.35
2018-09-15T15:55:05.487Z,6.40
2018-09-15T15:57:34.111Z,6.20
2018-09-15T16:00:03.231Z,6.80
2018-09-15T16:02:32.117Z,7.27
2018-09-15T16:05:00.831Z,7.10
2018-09-15T16:07:29.678Z,6.70
2018-09-15T16:09:58.429Z,7.25
2018-09-15T16:12:31.031Z,12.03
2018-09-15T16:14:59.798Z,9.03
2018-09-15T16:17:28.605Z,7.92
2018-09-15T16:19:57.413Z,7.30
2018-09-15T16:22:26.182Z,7.33
2018-09-15T16:24:54.839Z,7.40
2018-09-15T16:27:24.403Z,7.30
2018-09-15T16:29:53.300Z,9.30
2018-09-15T16:32:21.975Z,19.52
2018-09-15T16:34:50.721Z,8.90
2018-09-15T16:37:19.410Z,7.30
2018-09-15T16:39:48.205Z,7.78
2018-09-15T16:42:17.052Z,7.87
2018-09-15T16:44:45.934Z,9.15
2018-09-15T16:47:14.614Z,7.73
2018-09-15T16:49:43.394Z,8.18
2018-09-15T16:52:12.052Z,10.33
2018-09-15T16:54:40.731Z,8.65
2018-09-15T16:57:09.675Z,8.60
2018-09-15T16:59:38.246Z,8.98
2018-09-15T17:02:06.998Z,8.05
2018-09-15T17:04:35.835Z,8.65
2018-09-15T17:07:04.443Z,8.23
2018-09-15T17:09:33.236Z,8.67
2018-09-15T17:12:02.199Z,8.50
2018-09-15T17:14:31.239Z,8.28
2018-09-15T17:16:59.968Z,8.20
2018-09-15T17:19:28.780Z,8.50
2018-09-15T17:21:57.463Z,8.80
2018-09-15T17:24:26.161Z,9.05
2018-09-15T17:26:55.055Z,8.93
2018-09-15T17:29:23.671Z,10.25
2018-09-15T17:31:52.467Z,8.80
2018-09-15T17:34:21.181Z,10.13
2018-09-15T17:36:49.968Z,10.10
2018-09-15T17:39:18.670Z,8.93
2018-09-15T17:41:47.609Z,8.97
2018-09-15T17:44:16.909Z,37.83
2018-09-15T17:46:45.572Z,9.45
2018-09-15T17:49:14.306Z,10.53
2018-09-15T17:51:42.938Z,8.83
2018-09-15T17:57:06.357Z,9.03
2018-09-15T17:59:35.088Z,9.80
2018-09-15T18:02:03.887Z,10.32
2018-09-15T18:04:32.798Z,9.88
2018-09-15T18:07:01.510Z,11.03
2018-09-15T18:09:30.672Z,10.68
2018-09-15T18:11:59.339Z,10.00
2018-09-15T18:14:28.285Z,12.90
2018-09-15T18:16:57.095Z,11.93
2018-09-15T18:19:27.934Z,14.45
2018-09-15T18:21:56.730Z,12.83
2018-09-15T18:24:25.394Z,10.13
2018-09-15T18:26:58.642Z,12.10
2018-09-15T18:29:27.537Z,10.85
2018-09-15T18:31:56.289Z,11.18
2018-09-15T18:34:25.980Z,11.20
2018-09-15T18:36:57.192Z,10.98
2018-09-15T18:39:25.862Z,12.78
2018-09-15T18:41:54.544Z,11.63
2018-09-15T18:44:24.462Z,11.77
2018-09-15T18:46:54.007Z,11.03
2018-09-15T18:49:23.944Z,10.85
2018-09-15T18:51:52.711Z,11.50
2018-09-15T18:54:21.679Z,11.33
2018-09-15T18:56:50.465Z,11.55
2018-09-15T18:59:19.210Z,12.40
2018-09-15T19:01:47.938Z,11.50
2018-09-15T19:04:16.636Z,13.88
2018-09-15T19:06:45.271Z,13.32
2018-09-15T19:09:14.111Z,11.68
2018-09-15T19:11:42.874Z,11.18
2018-09-15T19:14:12.494Z,14.35
2018-09-15T19:16:43.936Z,11.43
2018-09-15T19:19:12.700Z,11.65
2018-09-15T19:21:41.386Z,11.20
2018-09-15T19:24:10.136Z,11.30
2018-09-15T19:26:39.053Z,11.15
2018-09-15T19:29:07.718Z,11.30
2018-09-15T19:31:36.611Z,10.85
2018-09-15T19:34:05.546Z,13.00
2018-09-15T19:36:34.359Z,14.23
2018-09-15T19:39:04.267Z,11.63
2018-09-15T19:41:33.398Z,12.57
2018-09-15T19:44:02.443Z,11.10
2018-09-15T19:46:31.218Z,11.68
2018-09-15T19:48:59.951Z,11.68
2018-09-15T19:51:29.089Z,10.57
2018-09-15T19:53:57.786Z,11.03
2018-09-15T19:56:28.203Z,10.40
2018-09-15T19:58:57.047Z,12.05
2018-09-15T20:01:25.780Z,11.03
2018-09-15T20:03:54.410Z,11.22
2018-09-15T20:06:23.153Z,10.50
2018-09-15T20:08:51.841Z,10.32
2018-09-15T20:11:20.590Z,9.90
2018-09-15T20:13:49.429Z,10.23
2018-09-15T20:16:18.806Z,10.58
2018-09-15T20:18:46.247Z,9.90
2018-09-15T20:21:13.712Z,9.78
2018-09-15T20:23:42.622Z,10.95
2018-09-15T20:26:11.294Z,11.97
2018-09-15T20:28:41.796Z,13.72
2018-09-15T20:31:10.653Z,10.82
2018-09-15T20:33:39.402Z,12.47
2018-09-15T20:36:08.563Z,11.15
2018-09-15T20:38:37.339Z,11.45
2018-09-15T20:41:09.274Z,10.40
2018-09-15T20:43:39.191Z,10.78
2018-09-15T20:46:09.153Z,11.15
2018-09-15T20:48:37.826Z,10.75
2018-09-15T20:51:06.528Z,10.40
2018-09-15T20:53:37.913Z,11.45
2018-09-15T20:56:06.668Z,10.85
2018-09-15T20:58:35.438Z,11.23
2018-09-15T21:01:04.339Z,10.30
2018-09-15T21:03:36.502Z,12.03
2018-09-15T21:06:05.105Z,10.28
2018-09-15T21:08:35.306Z,11.85
2018-09-15T21:11:04.112Z,11.78
2018-09-15T21:13:36.253Z,10.50
2018-09-15T21:16:05.175Z,10.53
2018-09-15T21:18:33.815Z,10.38
2018-09-15T21:21:02.526Z,10.43
2018-09-15T21:23:31.279Z,11.45
2018-09-15T21:25:59.998Z,10.70
2018-09-15T21:28:28.676Z,12.10
2018-09-15T21:30:57.410Z,10.27
2018-09-15T21:33:26.072Z,9.70
2018-09-15T21:35:56.049Z,10.53
2018-09-15T21:38:27.510Z,10.30
2018-09-15T21:40:56.617Z,10.18
2018-09-15T21:43:25.467Z,10.25
2018-09-15T21:45:54.518Z,11.40
2018-09-15T21:48:23.164Z,11.10
2018-09-15T21:50:52.542Z,11.15
2018-09-15T21:53:21.312Z,10.55
2018-09-15T21:55:50.268Z,10.40
2018-09-15T21:58:19.020Z,10.83
2018-09-15T22:12:41.115Z,13.70
2018-09-15T22:15:25.426Z,11.50
2018-09-15T22:17:55.978Z,14.40
2018-09-15T22:20:24.749Z,11.05
2018-09-15T22:22:53.877Z,10.98
2018-09-15T22:25:22.670Z,9.97
2018-09-15T22:27:51.284Z,11.10
2018-09-15T22:30:20.457Z,10.82
2018-09-15T22:32:50.107Z,10.90
2018-09-15T22:35:19.007Z,11.22
2018-09-15T22:37:47.825Z,11.97
2018-09-15T22:40:16.627Z,10.17
2018-09-15T22:42:45.344Z,10.65
2018-09-15T22:45:14.077Z,10.53
2018-09-15T22:47:42.797Z,12.43
2018-09-15T22:50:11.624Z,10.95
2018-09-15T22:52:40.275Z,9.58
2018-09-15T22:55:09.433Z,10.65
2018-09-15T22:57:38.361Z,12.50
2018-09-15T23:00:07.500Z,10.18
2018-09-15T23:02:36.229Z,10.05
2018-09-15T23:05:07.789Z,10.10
2018-09-15T23:07:36.808Z,11.22
2018-09-15T23:10:06.126Z,10.40
2018-09-15T23:12:34.998Z,10.75
2018-09-15T23:15:03.990Z,10.53
2018-09-15T23:17:33.512Z,9.28
2018-09-15T23:20:02.104Z,8.40
2018-09-15T23:22:30.926Z,9.30
2018-09-15T23:24:59.702Z,8.68
2018-09-15T23:27:28.455Z,8.38
2018-09-15T23:29:57.082Z,8.37
2018-09-15T23:32:25.869Z,8.30
2018-09-15T23:34:54.616Z,8.13
2018-09-15T23:37:23.302Z,8.13
2018-09-15T23:39:51.919Z,8.55
2018-09-15T23:42:21.022Z,9.83
2018-09-15T23:51:33.143Z,9.98
2018-09-15T23:54:01.823Z,9.95
2018-09-15T23:56:30.370Z,9.88
2018-09-15T23:58:59.257Z,9.93
